London Express — DPLE — position and weather

sailwx.info

Track history (hours):
 
Tides and Currents Weather Stations Pressure Air Temp Water Temp Dewpoint Dewpoint Depression Visibility Wind Speed Wind Dir Waves Ship Positions

London Express

Last reported at 2016-Dec-03 10:30 UTC. Time now 2016-Dec-03 11:44 UTC.
Position N 39°23' W 000°15'.

Length 294 m; beam 32.3 m; draft 13.6 m.

Type: Ship. MMSI: 211262630.

Date/timePositionNaut miles runAvg speedWind from/ knotsBaromVisibWave heightAir tempDewpointWater temp
2016-Dec-03 10:30N 39°23' W 000°15'0 0.0
2016-Dec-03 09:21N 39°24' W 000°15'0 0.0
2016-Dec-03 08:08N 39°24' W 000°15'0 0.0
2016-Dec-03 07:32N 39°24' W 000°15'0 0.0
2016-Dec-03 06:32N 39°23' W 000°15'0 0.0
2016-Dec-03 05:31N 39°24' W 000°15'0 0.0
2016-Dec-03 04:31N 39°24' W 000°15'0 0.0
2016-Dec-03 03:33N 39°23' W 000°15'0 0.0
2016-Dec-03 02:27N 39°23' W 000°15'0 0.0
2016-Dec-03 01:32N 39°23' W 000°15'0 0.0
2016-Dec-03 00:29N 39°23' W 000°15'0 0.2
2016-Dec-02 23:22N 39°23' W 000°15'0 0.0
2016-Dec-02 22:10N 39°23' W 000°15'0 0.1
2016-Dec-02 19:15N 39°24' W 000°16'0 0.0
2016-Dec-02 18:32N 39°24' W 000°16'0 0.0
2016-Dec-02 17:20N 39°24' W 000°15'0 0.0
2016-Dec-02 16:19N 39°24' W 000°15'0 0.0
2016-Dec-02 15:07N 39°24' W 000°15'0 0.0
2016-Dec-02 13:33N 39°24' W 000°15'0 0.0
2016-Dec-02 12:30N 39°24' W 000°15'0 0.1
2016-Dec-02 11:32N 39°24' W 000°15'0 0.0
2016-Dec-02 10:32N 39°24' W 000°15'0 0.0
2016-Dec-02 09:28N 39°24' W 000°15'0 0.0
2016-Dec-02 08:31N 39°24' W 000°15'0 0.0
2016-Dec-02 07:31N 39°24' W 000°15'9912.1
2016-Dec-01 23:23N 37°45' W 000°21'1516.6
2016-Dec-01 22:29N 37°33' W 000°31'1616.8
2016-Dec-01 21:33N 37°22' W 000°46'22916.4
2016-Dec-01 07:33N 35°60' W 005°12'230 8.1
2016-Nov-30 03:09N 37°41' W 009°31'1016.6
2016-Nov-30 02:33N 37°51' W 009°29'1716.8
2016-Nov-30 01:33N 38°07' W 009°27'1716.8
2016-Nov-30 00:33N 38°24' W 009°26'1313.0
2016-Nov-29 23:33N 38°37' W 009°23'1111.4
2016-Nov-29 22:33N 38°42' W 009°10'0 0.4
2016-Nov-29 21:32N 38°42' W 009°10'0 0.0
2016-Nov-29 20:31N 38°42' W 009°10'0 0.0
2016-Nov-29 19:31N 38°42' W 009°10'0 0.0
2016-Nov-29 18:34N 38°42' W 009°10'0 0.0
2016-Nov-29 17:33N 38°42' W 009°10'0 0.0
2016-Nov-29 16:33N 38°42' W 009°10'0 0.0
2016-Nov-29 15:29N 38°42' W 009°10'0 0.0
2016-Nov-29 14:32N 38°42' W 009°10'0 0.0
2016-Nov-29 13:31N 38°42' W 009°10'0 0.0
2016-Nov-29 12:31N 38°42' W 009°10'0 0.0
2016-Nov-29 11:34N 38°42' W 009°10'0 0.0
2016-Nov-29 10:33N 38°42' W 009°10'0 0.0
2016-Nov-29 09:33N 38°42' W 009°10'0 0.0
2016-Nov-29 08:32N 38°42' W 009°10'0 0.3
2016-Nov-29 07:34N 38°42' W 009°10'1010.4
2016-Nov-29 06:33N 38°37' W 009°22'4 4.4
2016-Nov-29 05:34N 38°39' W 009°27'1212.1
2016-Nov-29 04:34N 38°36' W 009°42'1312.7
2016-Nov-29 03:34N 38°32' W 009°58'1312.8
2016-Nov-29 02:33N 38°29' W 010°13'56014.5
2016-Nov-27 12:00N 37°06' W 021°54'8414.6 010 / 121019.510.8 19.717.319.0
2016-Nov-27 06:15N 36°53' W 023°38'1014.4
2016-Nov-27 05:34N 36°51' W 023°50'1414.3
2016-Nov-27 04:33N 36°48' W 024°08'1414.1
2016-Nov-27 03:34N 36°45' W 024°25'1413.9
2016-Nov-27 02:33N 36°42' W 024°42'1414.0
2016-Nov-27 01:33N 36°39' W 024°59'1414.0
2016-Nov-27 00:33N 36°35' W 025°15'1414.1
2016-Nov-26 23:33N 36°32' W 025°33'1717.0
2016-Nov-26 22:33N 36°28' W 025°53'1717.4
2016-Nov-26 21:33N 36°24' W 026°14'11417.3
2016-Nov-26 15:00N 35°54' W 028°30'5217.3 190 / 81018.5 5.4 22.813.021.0
2016-Nov-26 12:00N 35°36' W 029°30'33218.4 190 / 101020.110.8 24.122.821.0
2016-Nov-25 18:00N 33°54' W 035°54'43318.1 210 / 131018.1 5.4 23.514.823.0
2016-Nov-24 18:00N 31°18' W 043°54'42317.6 180 / 111017.6 5.4 28.517.425.0
2016-Nov-23 18:00N 28°12' W 051°12'   070 / 71016.4 5.4 27.018.827.0
Track history (hours):
 
Tides and Currents Weather Stations Pressure Air Temp Water Temp Dewpoint Dewpoint Depression Visibility Wind Speed Wind Dir Waves Ship Positions

London Express

Last reported at 2016-Dec-03 10:30 UTC. Time now 2016-Dec-03 11:44 UTC.
Position N 39°23' W 000°15'.

Length 294 m; beam 32.3 m; draft 13.6 m.

Type: Ship. MMSI: 211262630.

Date/timePositionNaut miles runAvg speedWind from/ knotsBaromVisibWave heightAir tempDewpointWater temp
2016-Dec-03 10:30N 39°23' W 000°15'0 0.0
2016-Dec-03 09:21N 39°24' W 000°15'0 0.0
2016-Dec-03 08:08N 39°24' W 000°15'0 0.0
2016-Dec-03 07:32N 39°24' W 000°15'0 0.0
2016-Dec-03 06:32N 39°23' W 000°15'0 0.0
2016-Dec-03 05:31N 39°24' W 000°15'0 0.0
2016-Dec-03 04:31N 39°24' W 000°15'0 0.0
2016-Dec-03 03:33N 39°23' W 000°15'0 0.0
2016-Dec-03 02:27N 39°23' W 000°15'0 0.0
2016-Dec-03 01:32N 39°23' W 000°15'0 0.0
2016-Dec-03 00:29N 39°23' W 000°15'0 0.2
2016-Dec-02 23:22N 39°23' W 000°15'0 0.0
2016-Dec-02 22:10N 39°23' W 000°15'0 0.1
2016-Dec-02 19:15N 39°24' W 000°16'0 0.0
2016-Dec-02 18:32N 39°24' W 000°16'0 0.0
2016-Dec-02 17:20N 39°24' W 000°15'0 0.0
2016-Dec-02 16:19N 39°24' W 000°15'0 0.0
2016-Dec-02 15:07N 39°24' W 000°15'0 0.0
2016-Dec-02 13:33N 39°24' W 000°15'0 0.0
2016-Dec-02 12:30N 39°24' W 000°15'0 0.1
2016-Dec-02 11:32N 39°24' W 000°15'0 0.0
2016-Dec-02 10:32N 39°24' W 000°15'0 0.0
2016-Dec-02 09:28N 39°24' W 000°15'0 0.0
2016-Dec-02 08:31N 39°24' W 000°15'0 0.0
2016-Dec-02 07:31N 39°24' W 000°15'9912.1
2016-Dec-01 23:23N 37°45' W 000°21'1516.6
2016-Dec-01 22:29N 37°33' W 000°31'1616.8
2016-Dec-01 21:33N 37°22' W 000°46'22916.4
2016-Dec-01 07:33N 35°60' W 005°12'230 8.1
2016-Nov-30 03:09N 37°41' W 009°31'1016.6
2016-Nov-30 02:33N 37°51' W 009°29'1716.8
2016-Nov-30 01:33N 38°07' W 009°27'1716.8
2016-Nov-30 00:33N 38°24' W 009°26'1313.0
2016-Nov-29 23:33N 38°37' W 009°23'1111.4
2016-Nov-29 22:33N 38°42' W 009°10'0 0.4
2016-Nov-29 21:32N 38°42' W 009°10'0 0.0
2016-Nov-29 20:31N 38°42' W 009°10'0 0.0
2016-Nov-29 19:31N 38°42' W 009°10'0 0.0
2016-Nov-29 18:34N 38°42' W 009°10'0 0.0
2016-Nov-29 17:33N 38°42' W 009°10'0 0.0
2016-Nov-29 16:33N 38°42' W 009°10'0 0.0
2016-Nov-29 15:29N 38°42' W 009°10'0 0.0
2016-Nov-29 14:32N 38°42' W 009°10'0 0.0
2016-Nov-29 13:31N 38°42' W 009°10'0 0.0
2016-Nov-29 12:31N 38°42' W 009°10'0 0.0
2016-Nov-29 11:34N 38°42' W 009°10'0 0.0
2016-Nov-29 10:33N 38°42' W 009°10'0 0.0
2016-Nov-29 09:33N 38°42' W 009°10'0 0.0
2016-Nov-29 08:32N 38°42' W 009°10'0 0.3
2016-Nov-29 07:34N 38°42' W 009°10'1010.4
2016-Nov-29 06:33N 38°37' W 009°22'4 4.4
2016-Nov-29 05:34N 38°39' W 009°27'1212.1
2016-Nov-29 04:34N 38°36' W 009°42'1312.7
2016-Nov-29 03:34N 38°32' W 009°58'1312.8
2016-Nov-29 02:33N 38°29' W 010°13'56014.5
2016-Nov-27 12:00N 37°06' W 021°54'8414.6 010 / 121019.510.8 19.717.319.0
2016-Nov-27 06:15N 36°53' W 023°38'1014.4
2016-Nov-27 05:34N 36°51' W 023°50'1414.3
2016-Nov-27 04:33N 36°48' W 024°08'1414.1
2016-Nov-27 03:34N 36°45' W 024°25'1413.9
2016-Nov-27 02:33N 36°42' W 024°42'1414.0
2016-Nov-27 01:33N 36°39' W 024°59'1414.0
2016-Nov-27 00:33N 36°35' W 025°15'1414.1
2016-Nov-26 23:33N 36°32' W 025°33'1717.0
2016-Nov-26 22:33N 36°28' W 025°53'1717.4
2016-Nov-26 21:33N 36°24' W 026°14'11417.3
2016-Nov-26 15:00N 35°54' W 028°30'5217.3 190 / 81018.5 5.4 22.813.021.0
2016-Nov-26 12:00N 35°36' W 029°30'33218.4 190 / 101020.110.8 24.122.821.0
2016-Nov-25 18:00N 33°54' W 035°54'43318.1 210 / 131018.1 5.4 23.514.823.0
2016-Nov-24 18:00N 31°18' W 043°54'42317.6 180 / 111017.6 5.4 28.517.425.0
2016-Nov-23 18:00N 28°12' W 051°12'   070 / 71016.4 5.4 27.018.827.0

Dump ship's entire track history